createdAt,value
2023-06-11T00:03:08.774Z,0.60
2023-06-11T00:08:11.228Z,0.90
2023-06-11T00:13:12.817Z,1.00
2023-06-11T00:18:15.630Z,0.90
2023-06-11T00:23:17.336Z,0.80
2023-06-11T00:28:18.933Z,0.80
2023-06-11T00:33:20.467Z,0.75
2023-06-11T00:38:22.325Z,0.70
2023-06-11T00:43:25.163Z,0.90
2023-06-11T00:48:27.586Z,1.00
2023-06-11T00:53:29.178Z,0.90
2023-06-11T00:58:31.189Z,0.77
2023-06-11T01:03:34.870Z,1.00
2023-06-11T01:08:40.193Z,0.95
2023-06-11T01:13:42.504Z,0.80
2023-06-11T01:19:05.037Z,1.00
2023-06-11T01:24:16.801Z,0.77
2023-06-11T01:29:20.128Z,0.73
2023-06-11T01:34:21.701Z,0.73
2023-06-11T01:39:23.330Z,0.77
2023-06-11T01:44:26.652Z,0.93
2023-06-11T01:49:28.310Z,0.93
2023-06-11T01:54:29.954Z,0.70
2023-06-11T01:59:31.576Z,0.90
2023-06-11T02:04:33.320Z,0.70
2023-06-11T02:09:34.904Z,0.98
2023-06-11T02:14:36.596Z,0.98
2023-06-11T02:19:38.315Z,0.70
2023-06-11T02:24:39.863Z,0.52
2023-06-11T02:29:41.517Z,0.98
2023-06-11T02:34:43.030Z,0.88
2023-06-11T02:39:44.618Z,0.80
2023-06-11T02:44:46.406Z,0.98
2023-06-11T02:49:48.068Z,0.93
2023-06-11T02:54:49.620Z,0.93
2023-06-11T02:59:51.255Z,0.93
2023-06-11T03:04:52.952Z,0.70
2023-06-11T03:09:54.500Z,0.73
2023-06-11T03:14:56.080Z,0.70
2023-06-11T03:19:57.717Z,0.73
2023-06-11T03:24:59.279Z,0.98
2023-06-11T03:30:00.844Z,0.90
2023-06-11T03:35:02.469Z,0.82
2023-06-11T03:40:04.276Z,1.20
2023-06-11T03:45:06.250Z,0.95
2023-06-11T03:50:08.397Z,1.02
2023-06-11T03:55:10.887Z,1.00
2023-06-11T04:00:13.015Z,1.30
2023-06-11T04:05:14.735Z,1.70
2023-06-11T04:10:16.353Z,2.25
2023-06-11T04:15:18.016Z,2.70
2023-06-11T04:20:19.591Z,2.45
2023-06-11T04:25:21.228Z,2.80
2023-06-11T04:30:22.770Z,2.50
2023-06-11T04:35:27.372Z,2.70
2023-06-11T04:40:28.939Z,3.00
2023-06-11T04:45:31.647Z,9.30
2023-06-11T04:50:33.983Z,13.13
2023-06-11T04:55:39.791Z,19.67
2023-06-11T05:00:41.535Z,22.38
2023-06-11T05:05:51.313Z,24.85
2023-06-11T05:10:53.088Z,21.53
2023-06-11T05:15:58.486Z,17.83
2023-06-11T05:21:00.136Z,15.40
2023-06-11T05:26:13.082Z,13.02
2023-06-11T05:31:14.704Z,12.23
2023-06-11T05:36:17.885Z,11.13
2023-06-11T05:41:20.042Z,8.70
2023-06-11T05:46:25.495Z,8.88
2023-06-11T05:51:27.219Z,8.20
2023-06-11T05:56:28.806Z,6.28
2023-06-11T06:01:34.279Z,5.75
2023-06-11T06:06:36.392Z,6.18
2023-06-11T06:11:38.201Z,4.85
2023-06-11T06:16:39.823Z,4.82
2023-06-11T06:21:41.519Z,3.42
2023-06-11T06:26:43.175Z,2.63
2023-06-11T06:31:44.961Z,2.72
2023-06-11T06:36:47.099Z,1.55
2023-06-11T06:41:48.830Z,1.40
2023-06-11T06:46:51.176Z,2.15
2023-06-11T06:51:52.756Z,1.15
2023-06-11T06:56:54.320Z,1.30
2023-06-11T07:01:55.970Z,1.05
2023-06-11T07:06:57.727Z,0.80
2023-06-11T07:11:59.319Z,0.88
2023-06-11T07:17:01.136Z,0.70
2023-06-11T07:22:02.752Z,0.70
2023-06-11T07:27:04.628Z,0.60
2023-06-11T07:32:07.313Z,0.60
2023-06-11T07:37:09.696Z,0.70
2023-06-11T07:42:11.560Z,0.75
2023-06-11T07:47:13.118Z,0.85
2023-06-11T07:52:14.681Z,0.60
2023-06-11T07:57:17.050Z,0.65
2023-06-11T08:02:18.858Z,0.65
2023-06-11T08:07:20.580Z,0.70
2023-06-11T08:12:22.139Z,0.70
2023-06-11T08:17:23.771Z,0.60
2023-06-11T08:22:25.379Z,0.73
2023-06-11T08:27:26.988Z,0.77
2023-06-11T08:32:28.841Z,0.60
2023-06-11T08:37:30.420Z,0.60
2023-06-11T08:42:31.990Z,0.70
2023-06-11T08:47:34.741Z,0.70
2023-06-11T08:52:36.981Z,0.65
2023-06-11T08:57:38.590Z,0.55
2023-06-11T09:02:40.672Z,0.70
2023-06-11T09:07:49.710Z,0.70
2023-06-11T09:12:51.293Z,0.50
2023-06-11T09:17:53.001Z,0.60
2023-06-11T09:22:56.092Z,0.65
2023-06-11T09:28:06.559Z,0.85
2023-06-11T09:33:15.693Z,0.70
2023-06-11T09:38:21.192Z,0.45
2023-06-11T09:43:23.664Z,0.70
2023-06-11T09:48:25.638Z,0.55
2023-06-11T09:53:27.365Z,0.57
2023-06-11T09:58:29.584Z,0.80
2023-06-11T10:03:32.044Z,0.90
2023-06-11T10:08:35.445Z,0.47
2023-06-11T10:13:38.628Z,0.60
2023-06-11T10:18:40.288Z,0.60
2023-06-11T10:23:42.645Z,0.70
2023-06-11T10:28:50.064Z,0.50
2023-06-11T10:33:51.835Z,0.80
2023-06-11T10:39:04.883Z,0.85
2023-06-11T10:44:07.236Z,0.68
2023-06-11T10:49:13.613Z,0.65
2023-06-11T10:54:24.092Z,0.65
2023-06-11T10:59:25.931Z,0.77
2023-06-11T11:04:27.765Z,0.63
2023-06-11T11:09:29.389Z,0.57
2023-06-11T11:14:31.399Z,0.40
2023-06-11T11:19:34.816Z,0.70
2023-06-11T11:24:38.898Z,0.70
2023-06-11T11:29:42.286Z,0.43
2023-06-11T11:34:45.317Z,0.47
2023-06-11T11:39:47.701Z,0.52
2023-06-11T11:44:50.895Z,0.50
2023-06-11T11:49:56.560Z,0.57
2023-06-11T11:54:59.500Z,0.55
2023-06-11T12:00:01.227Z,0.88
2023-06-11T12:05:03.015Z,0.60
2023-06-11T12:10:04.740Z,0.70
2023-06-11T12:15:06.672Z,0.68
2023-06-11T12:20:08.887Z,0.65
2023-06-11T12:25:10.673Z,0.60
2023-06-11T12:30:13.373Z,0.80
2023-06-11T12:35:15.321Z,0.80
2023-06-11T12:40:17.808Z,0.52
2023-06-11T12:45:19.493Z,0.68
2023-06-11T12:50:25.158Z,0.40
2023-06-11T12:55:28.285Z,0.65
2023-06-11T13:00:31.407Z,0.50
2023-06-11T13:05:33.201Z,0.80
2023-06-11T13:10:34.828Z,0.70
2023-06-11T13:15:36.608Z,0.60
2023-06-11T13:20:38.200Z,0.65
2023-06-11T13:25:39.761Z,1.35
2023-06-11T13:30:41.443Z,0.73
2023-06-11T13:35:43.722Z,0.45
2023-06-11T13:40:45.365Z,0.60
2023-06-11T13:45:47.009Z,0.60
2023-06-11T13:50:49.729Z,0.47
2023-06-11T13:55:52.069Z,0.50
2023-06-11T14:00:54.896Z,0.50
2023-06-11T14:05:56.886Z,0.50
2023-06-11T14:10:58.482Z,0.57
2023-06-11T14:16:00.318Z,0.55
2023-06-11T14:21:01.952Z,0.60
2023-06-11T14:26:03.582Z,0.70
2023-06-11T14:31:07.941Z,0.43
2023-06-11T14:36:09.576Z,0.70
2023-06-11T14:41:11.161Z,0.57
2023-06-11T14:46:12.875Z,0.50
2023-06-11T14:51:14.502Z,0.60
2023-06-11T14:56:16.241Z,0.50
2023-06-11T15:01:18.018Z,0.60
2023-06-11T15:06:19.657Z,0.63
2023-06-11T15:11:21.337Z,0.90
2023-06-11T15:16:23.019Z,0.70
2023-06-11T15:21:26.071Z,0.57
2023-06-11T15:26:27.683Z,0.50
2023-06-11T15:31:29.350Z,0.70
2023-06-11T15:36:31.287Z,0.63
2023-06-11T15:41:32.970Z,0.60
2023-06-11T15:46:34.728Z,0.93
2023-06-11T15:51:36.332Z,0.82
2023-06-11T15:56:38.113Z,0.70
2023-06-11T16:01:40.101Z,0.75
2023-06-11T16:06:41.870Z,0.60
2023-06-11T16:11:43.596Z,0.85
2023-06-11T16:16:45.249Z,0.60
2023-06-11T16:21:48.106Z,0.50
2023-06-11T16:26:49.686Z,0.60
2023-06-11T16:31:51.371Z,0.65
2023-06-11T16:36:52.992Z,1.20
2023-06-11T16:41:54.777Z,0.60
2023-06-11T16:46:56.616Z,0.70
2023-06-11T16:51:59.096Z,0.57
2023-06-11T16:57:01.607Z,0.80
2023-06-11T17:02:03.628Z,0.80
2023-06-11T17:07:06.156Z,0.60
2023-06-11T17:12:08.148Z,0.60
2023-06-11T17:17:09.799Z,0.65
2023-06-11T17:22:12.286Z,0.60
2023-06-11T17:27:13.979Z,0.50
2023-06-11T17:32:15.633Z,0.60
2023-06-11T17:37:17.307Z,0.85
2023-06-11T17:42:19.007Z,0.70
2023-06-11T17:47:20.829Z,0.93
2023-06-11T17:52:22.396Z,0.75
2023-06-11T17:57:24.129Z,0.88
2023-06-11T18:02:26.630Z,0.73
2023-06-11T18:07:28.356Z,0.90
2023-06-11T18:12:30.889Z,0.73
2023-06-11T18:17:32.561Z,0.70
2023-06-11T18:22:34.229Z,0.90
2023-06-11T18:27:37.265Z,0.68
2023-06-11T18:32:38.921Z,1.00
2023-06-11T18:37:40.745Z,0.68
2023-06-11T18:42:42.573Z,0.88
2023-06-11T18:47:44.252Z,0.63
2023-06-11T18:52:45.827Z,0.88
2023-06-11T18:57:47.403Z,0.70
2023-06-11T19:02:49.188Z,0.82
2023-06-11T19:07:50.968Z,0.70
2023-06-11T19:12:55.098Z,0.80
2023-06-11T19:17:57.187Z,0.88
2023-06-11T19:22:59.065Z,1.00
2023-06-11T19:28:00.879Z,0.88
2023-06-11T19:33:02.693Z,0.73
2023-06-11T19:38:04.389Z,1.00
2023-06-11T19:43:06.013Z,0.90
2023-06-11T19:48:07.712Z,1.08
2023-06-11T19:53:09.362Z,0.85
2023-06-11T19:58:11.646Z,0.90
2023-06-11T20:03:13.476Z,0.85
2023-06-11T20:08:16.327Z,1.08
2023-06-11T20:13:17.898Z,0.95
2023-06-11T20:18:20.158Z,0.73
2023-06-11T20:23:21.782Z,1.08
2023-06-11T20:28:23.385Z,1.08
2023-06-11T20:33:25.035Z,1.13
2023-06-11T20:38:26.646Z,1.42
2023-06-11T20:43:28.374Z,1.35
2023-06-11T20:48:30.020Z,1.25
2023-06-11T20:53:34.394Z,1.10
2023-06-11T20:58:36.438Z,1.00
2023-06-11T21:03:38.066Z,1.23
2023-06-11T21:08:39.752Z,1.00
2023-06-11T21:13:41.367Z,1.27
2023-06-11T21:18:42.924Z,1.30
2023-06-11T21:23:44.544Z,1.33
2023-06-11T21:28:46.173Z,1.45
2023-06-11T21:33:47.755Z,2.03
2023-06-11T21:38:49.313Z,1.50
2023-06-11T21:43:50.864Z,1.73
2023-06-11T21:48:52.470Z,1.60
2023-06-11T21:53:54.029Z,1.52
2023-06-11T21:58:55.583Z,1.40
2023-06-11T22:03:57.220Z,1.40
2023-06-11T22:08:58.991Z,1.27
2023-06-11T22:14:02.104Z,1.15
2023-06-11T22:19:07.113Z,1.10
2023-06-11T22:24:10.297Z,1.60
2023-06-11T22:29:12.383Z,1.63
2023-06-11T22:34:13.947Z,1.40
2023-06-11T22:39:17.114Z,1.15
2023-06-11T22:44:18.809Z,1.23
2023-06-11T22:49:20.993Z,1.50
2023-06-11T22:54:22.519Z,1.23
2023-06-11T22:59:24.084Z,1.33
2023-06-11T23:04:25.842Z,1.50
2023-06-11T23:09:27.375Z,1.15
2023-06-11T23:14:28.920Z,1.30
2023-06-11T23:19:30.602Z,1.50
2023-06-11T23:24:32.502Z,1.27
2023-06-11T23:29:34.564Z,1.40
2023-06-11T23:34:36.151Z,1.75
2023-06-11T23:39:37.716Z,1.55
2023-06-11T23:44:39.320Z,1.13
2023-06-11T23:49:41.088Z,1.15
2023-06-11T23:54:42.716Z,1.52
2023-06-11T23:59:44.303Z,1.50
